Time;durP1;ratioP1;P1;durP2;ratioP2;P2;SDS_P1;SDS_P2;PMS_P1;PMS_P2;Temp;Humidity;BMP_temperature;BMP_pressure;BME280_temperature;BME280_humidity;BME280_pressure;Samples;Min_cycle;Max_cycle;Signal;HPM_P1;HPM_P2
2021/12/31 00:03:57;;;;;;;3.70;3.00;;;;;;;;;;8271954;28;20126;-80
2021/12/31 00:07:57;;;;;;;9.32;3.28;;;;;;;;;;8275905;28;20021;-80
2021/12/31 00:11:58;;;;;;;9.05;3.55;;;;;;;;;;8272684;28;20022;-80
2021/12/31 00:15:58;;;;;;;7.57;3.00;;;;;;;;;;8272433;28;20037;-80
2021/12/31 00:20:12;;;;;;;7.03;3.20;;;;;;;;;;8266431;28;20029;-80
2021/12/31 00:24:12;;;;;;;;;;;;;;;;;;8271781;28;20029;-80
2021/12/31 00:28:13;;;;;;;8.33;3.03;;;;;;;;;;8271789;28;19913;-80
2021/12/31 00:32:13;;;;;;;5.70;3.00;;;;;;;;;;8273043;28;20356;-80
2021/12/31 00:36:13;;;;;;;5.97;2.65;;;;;;;;;;8274581;28;20292;-80
2021/12/31 00:40:14;;;;;;;7.88;3.28;;;;;;;;;;8264581;28;20107;-81
2021/12/31 00:44:15;;;;;;;6.70;2.80;;;;;;;;;;8286729;28;20033;-80
2021/12/31 00:48:15;;;;;;;7.63;3.05;;;;;;;;;;8271188;28;20869;-80
2021/12/31 00:52:15;;;;;;;7.18;2.90;;;;;;;;;;8271592;28;20057;-80
2021/12/31 00:56:15;;;;;;;10.25;3.83;;;;;;;;;;8272502;28;20510;-80
2021/12/31 01:00:16;;;;;;;9.52;3.25;;;;;;;;;;8274358;28;20056;-81
2021/12/31 01:04:16;;;;;;;5.97;2.47;;;;;;;;;;8265962;28;20052;-80
2021/12/31 01:08:16;;;;;;;7.68;2.92;;;;;;;;;;8275953;28;20029;-80
2021/12/31 01:12:16;;;;;;;6.10;2.65;;;;;;;;;;8272063;28;20113;-80
2021/12/31 01:16:18;;;;;;;5.07;2.60;;;;;;;;;;8270519;28;20096;-80
2021/12/31 01:20:20;;;;;;;6.10;2.40;;;;;;;;;;8267814;28;20974;-80
2021/12/31 01:24:23;;;;;;;6.68;2.42;;;;;;;;;;8264005;28;20021;-80
2021/12/31 01:28:24;;;;;;;7.72;2.90;;;;;;;;;;8268287;28;20962;-80
2021/12/31 01:32:25;;;;;;;5.65;2.47;;;;;;;;;;8270152;28;20037;-81
2021/12/31 01:36:25;;;;;;;6.93;2.53;;;;;;;;;;8266293;28;20068;-81
2021/12/31 01:40:25;;;;;;;9.23;2.45;;;;;;;;;;8272795;28;20422;-81
2021/12/31 01:44:36;;;;;;;4.00;2.30;;;;;;;;;;8281530;28;20037;-81
2021/12/31 01:48:48;;;;;;;4.50;2.40;;;;;;;;;;8271441;28;20050;-80
2021/12/31 01:52:48;;;;;;;5.35;2.30;;;;;;;;;;8280676;28;20021;-81
2021/12/31 01:56:49;;;;;;;6.93;3.17;;;;;;;;;;8270135;28;20030;-81
2021/12/31 02:00:50;;;;;;;4.53;2.63;;;;;;;;;;8264894;28;20038;-81
2021/12/31 02:04:50;;;;;;;6.20;3.05;;;;;;;;;;8272362;28;20034;-81
2021/12/31 02:08:51;;;;;;;6.25;2.90;;;;;;;;;;8268708;28;20874;-80
2021/12/31 02:12:52;;;;;;;7.95;2.85;;;;;;;;;;8271058;28;20026;-80
2021/12/31 02:16:52;;;;;;;6.45;2.92;;;;;;;;;;8281779;28;20038;-81
2021/12/31 02:20:52;;;;;;;7.45;2.97;;;;;;;;;;8271220;28;20033;-80
2021/12/31 02:24:54;;;;;;;6.75;2.78;;;;;;;;;;8271683;28;20483;-81
2021/12/31 02:28:55;;;;;;;8.10;3.08;;;;;;;;;;8281727;28;20034;-81
2021/12/31 02:32:56;;;;;;;6.05;2.92;;;;;;;;;;8270358;28;20040;-80
2021/12/31 02:36:56;;;;;;;4.15;2.67;;;;;;;;;;8265128;28;20085;-81
2021/12/31 02:40:56;;;;;;;6.78;2.90;;;;;;;;;;8270048;28;20030;-81
2021/12/31 02:44:58;;;;;;;8.17;3.10;;;;;;;;;;8271499;28;20513;-81
2021/12/31 02:48:58;;;;;;;9.10;3.40;;;;;;;;;;8268068;28;20302;-81
2021/12/31 02:53:00;;;;;;;7.25;2.97;;;;;;;;;;8270990;28;20112;-81
2021/12/31 02:57:00;;;;;;;6.57;3.00;;;;;;;;;;8267064;28;20935;-80
2021/12/31 03:01:01;;;;;;;5.82;2.78;;;;;;;;;;8268535;28;20038;-81
2021/12/31 03:05:01;;;;;;;6.85;3.20;;;;;;;;;;8268417;28;20100;-80
2021/12/31 03:09:01;;;;;;;8.95;2.47;;;;;;;;;;8267684;28;20061;-80
2021/12/31 03:13:02;;;;;;;8.05;2.88;;;;;;;;;;8270126;28;20148;-80
2021/12/31 03:17:04;;;;;;;5.47;2.47;;;;;;;;;;8261291;28;20061;-81
2021/12/31 03:21:12;;;;;;;4.05;2.20;;;;;;;;;;8268335;28;20490;-80
2021/12/31 03:25:12;;;;;;;3.85;2.33;;;;;;;;;;8270772;28;20021;-80
2021/12/31 03:29:12;;;;;;;6.07;2.17;;;;;;;;;;8260926;28;20040;-80
2021/12/31 03:33:13;;;;;;;4.63;2.00;;;;;;;;;;8268194;28;20034;-81
2021/12/31 03:37:13;;;;;;;4.72;2.15;;;;;;;;;;8271700;28;20032;-80
2021/12/31 03:41:14;;;;;;;4.55;2.00;;;;;;;;;;8267223;28;20014;-80
2021/12/31 03:45:14;;;;;;;4.28;2.00;;;;;;;;;;8268739;28;20088;-81
2021/12/31 03:49:14;;;;;;;3.83;2.05;;;;;;;;;;8269314;28;20034;-81
2021/12/31 03:53:15;;;;;;;2.75;1.75;;;;;;;;;;8274108;28;20194;-80
2021/12/31 03:57:15;;;;;;;4.05;2.03;;;;;;;;;;8271632;28;20052;-81
2021/12/31 04:01:16;;;;;;;5.87;1.80;;;;;;;;;;8269398;28;20037;-81
2021/12/31 04:05:16;;;;;;;8.27;2.15;;;;;;;;;;8270407;28;20280;-81
2021/12/31 04:09:16;;;;;;;11.55;2.80;;;;;;;;;;8274655;28;20036;-80
2021/12/31 04:13:16;;;;;;;4.97;2.47;;;;;;;;;;8284236;28;20025;-81
2021/12/31 04:17:16;;;;;;;5.63;2.30;;;;;;;;;;8271813;28;20117;-81
2021/12/31 04:21:19;;;;;;;7.28;2.80;;;;;;;;;;8274556;28;20356;-80
2021/12/31 04:25:20;;;;;;;7.18;2.60;;;;;;;;;;8271139;28;20025;-80
2021/12/31 04:29:21;;;;;;;3.08;2.30;;;;;;;;;;8285606;28;20026;-80
2021/12/31 04:33:21;;;;;;;7.18;2.85;;;;;;;;;;8270437;28;20049;-81
2021/12/31 04:37:21;;;;;;;6.63;2.90;;;;;;;;;;8265337;28;20025;-80
2021/12/31 04:41:21;;;;;;;5.85;2.63;;;;;;;;;;8272197;28;20566;-81
2021/12/31 04:45:23;;;;;;;5.97;3.00;;;;;;;;;;8274506;28;21070;-81
2021/12/31 04:49:23;;;;;;;5.22;2.47;;;;;;;;;;8273542;28;20637;-81
2021/12/31 04:53:23;;;;;;;5.33;2.50;;;;;;;;;;8273249;28;20056;-81
2021/12/31 04:57:25;;;;;;;7.00;2.95;;;;;;;;;;8274236;28;20269;-80
2021/12/31 05:01:26;;;;;;;7.45;2.50;;;;;;;;;;8271048;28;20033;-80
2021/12/31 05:05:26;;;;;;;5.43;2.60;;;;;;;;;;8270589;28;20033;-80
2021/12/31 05:09:26;;;;;;;5.87;2.50;;;;;;;;;;8271655;28;20075;-80
2021/12/31 05:13:27;;;;;;;7.88;2.60;;;;;;;;;;8272208;28;20304;-80
2021/12/31 05:17:27;;;;;;;5.63;2.50;;;;;;;;;;8273455;28;20076;-80
2021/12/31 05:21:27;;;;;;;5.55;2.22;;;;;;;;;;8265268;28;20079;-80
2021/12/31 05:25:27;;;;;;;6.68;2.53;;;;;;;;;;8273664;28;20021;-80
2021/12/31 05:29:27;;;;;;;8.60;2.40;;;;;;;;;;8272956;28;20029;-80
2021/12/31 05:33:28;;;;;;;6.18;2.03;;;;;;;;;;8264810;28;20281;-80
2021/12/31 05:37:28;;;;;;;5.95;2.00;;;;;;;;;;8273266;28;20122;-80
2021/12/31 05:41:29;;;;;;;4.75;1.80;;;;;;;;;;8270617;28;20030;-80
2021/12/31 05:45:29;;;;;;;3.90;2.15;;;;;;;;;;8271517;28;20165;-79
2021/12/31 05:49:29;;;;;;;5.53;1.60;;;;;;;;;;8265461;28;20495;-80
2021/12/31 05:53:29;;;;;;;7.85;1.60;;;;;;;;;;8272306;28;20107;-80
2021/12/31 05:57:30;;;;;;;3.13;1.30;;;;;;;;;;8269093;28;20050;-80
2021/12/31 06:01:31;;;;;;;4.20;1.73;;;;;;;;;;8268908;28;20044;-80
2021/12/31 06:05:31;;;;;;;3.70;1.90;;;;;;;;;;8268369;28;20075;-80
2021/12/31 06:09:32;;;;;;;7.20;1.73;;;;;;;;;;8271700;28;20041;-80
2021/12/31 06:13:33;;;;;;;3.47;1.75;;;;;;;;;;8268670;28;20119;-79
2021/12/31 06:17:33;;;;;;;2.33;1.50;;;;;;;;;;8267695;28;20047;-79
2021/12/31 06:21:34;;;;;;;4.72;1.60;;;;;;;;;;8270857;28;20096;-79
2021/12/31 06:25:34;;;;;;;4.20;1.45;;;;;;;;;;8271301;28;20026;-79
2021/12/31 06:29:34;;;;;;;2.25;1.23;;;;;;;;;;8270483;28;20962;-79
2021/12/31 06:33:35;;;;;;;1.88;1.33;;;;;;;;;;8262501;28;20038;-79
2021/12/31 06:37:36;;;;;;;3.60;1.60;;;;;;;;;;8268801;28;20068;-79
2021/12/31 06:41:37;;;;;;;3.63;1.20;;;;;;;;;;8270284;28;20021;-79
2021/12/31 06:45:37;;;;;;;2.85;1.30;;;;;;;;;;8269432;28;20356;-79
2021/12/31 06:49:37;;;;;;;1.50;1.15;;;;;;;;;;8270455;28;20144;-80
2021/12/31 06:53:38;;;;;;;2.30;1.30;;;;;;;;;;8270358;28;20537;-80
2021/12/31 06:57:38;;;;;;;3.50;1.30;;;;;;;;;;8268230;28;21065;-79
2021/12/31 07:01:38;;;;;;;2.05;1.10;;;;;;;;;;8270034;28;20156;-79
2021/12/31 07:05:42;;;;;;;1.98;1.10;;;;;;;;;;8269713;28;20022;-79
2021/12/31 07:09:42;;;;;;;4.93;1.50;;;;;;;;;;8271797;28;20038;-79
2021/12/31 07:13:42;;;;;;;1.40;1.30;;;;;;;;;;8268003;28;20693;-79
2021/12/31 07:17:42;;;;;;;3.78;1.50;;;;;;;;;;8271278;28;20041;-79
2021/12/31 07:21:43;;;;;;;2.15;1.35;;;;;;;;;;8271307;28;20033;-79
2021/12/31 07:25:43;;;;;;;2.78;1.23;;;;;;;;;;8270681;28;20040;-79
2021/12/31 07:29:43;;;;;;;1.00;1.00;;;;;;;;;;8275623;28;20597;-78
2021/12/31 07:33:44;;;;;;;1.38;1.00;;;;;;;;;;8273679;28;20065;-77
2021/12/31 07:37:44;;;;;;;2.92;1.20;;;;;;;;;;8276964;28;20171;-77
2021/12/31 07:41:44;;;;;;;1.75;0.82;;;;;;;;;;8273234;28;20962;-78
2021/12/31 07:45:44;;;;;;;2.78;0.90;;;;;;;;;;8272756;28;20041;-77
2021/12/31 07:49:44;;;;;;;3.88;1.30;;;;;;;;;;8274898;28;20029;-77
2021/12/31 07:53:45;;;;;;;1.30;1.20;;;;;;;;;;8267003;28;20021;-75
2021/12/31 07:57:45;;;;;;;1.35;1.00;;;;;;;;;;8272553;28;20363;-75
2021/12/31 08:01:45;;;;;;;2.05;1.13;;;;;;;;;;8273425;28;20709;-75
2021/12/31 08:05:45;;;;;;;2.73;1.10;;;;;;;;;;8272525;28;20030;-75
2021/12/31 08:09:46;;;;;;;2.22;1.20;;;;;;;;;;8275688;28;20347;-75
2021/12/31 08:13:46;;;;;;;1.90;1.00;;;;;;;;;;8272737;28;20071;-75
2021/12/31 08:17:46;;;;;;;2.25;1.20;;;;;;;;;;8272736;28;20499;-75
2021/12/31 08:21:46;;;;;;;1.50;1.30;;;;;;;;;;8272189;28;20032;-75
2021/12/31 08:25:46;;;;;;;1.30;1.08;;;;;;;;;;8273622;28;20363;-75
2021/12/31 08:29:47;;;;;;;1.30;1.20;;;;;;;;;;8274022;28;20132;-75
2021/12/31 08:33:47;;;;;;;2.15;1.30;;;;;;;;;;8272478;28;20045;-74
2021/12/31 08:37:47;;;;;;;1.63;1.30;;;;;;;;;;8272649;28;20918;-75
2021/12/31 08:41:47;;;;;;;2.08;1.20;;;;;;;;;;8274046;28;20034;-76
2021/12/31 08:45:47;;;;;;;2.10;1.52;;;;;;;;;;8266525;28;20125;-75
2021/12/31 08:49:48;;;;;;;2.53;1.25;;;;;;;;;;8272945;28;20928;-75
2021/12/31 08:53:52;;;;;;;2.13;1.60;;;;;;;;;;8273279;28;20839;-80
2021/12/31 08:57:52;;;;;;;1.73;1.50;;;;;;;;;;8283287;28;20034;-70
2021/12/31 09:01:52;;;;;;;2.10;1.40;;;;;;;;;;8272434;28;20279;-70
2021/12/31 09:05:53;;;;;;;1.25;1.15;;;;;;;;;;8272980;28;20303;-75
2021/12/31 09:09:53;;;;;;;1.15;1.05;;;;;;;;;;8272204;28;20030;-75
2021/12/31 09:13:55;;;;;;;2.85;1.38;;;;;;;;;;8272823;28;21077;-76
2021/12/31 09:17:55;;;;;;;2.28;1.00;;;;;;;;;;8271809;28;20046;-76
2021/12/31 09:21:56;;;;;;;1.23;1.10;;;;;;;;;;8272225;28;20071;-75
2021/12/31 09:25:57;;;;;;;1.60;1.10;;;;;;;;;;8272125;28;20769;-76
2021/12/31 09:29:58;;;;;;;4.47;1.20;;;;;;;;;;8272512;28;20033;-75
2021/12/31 09:33:58;;;;;;;1.23;1.13;;;;;;;;;;8269487;28;21000;-75
2021/12/31 09:37:59;;;;;;;1.00;0.90;;;;;;;;;;8266823;28;20026;-75
2021/12/31 09:41:59;;;;;;;2.80;1.55;;;;;;;;;;8270815;28;20049;-75
2021/12/31 09:45:59;;;;;;;1.13;1.05;;;;;;;;;;8271040;28;20034;-76
2021/12/31 09:49:59;;;;;;;2.35;1.10;;;;;;;;;;8269612;28;20038;-76
2021/12/31 09:54:00;;;;;;;2.53;1.40;;;;;;;;;;8271707;28;20014;-75
2021/12/31 09:58:00;;;;;;;1.25;0.93;;;;;;;;;;8268164;28;20030;-76
2021/12/31 10:02:00;;;;;;;1.85;1.20;;;;;;;;;;8271099;28;20030;-76
2021/12/31 10:06:11;;;;;;;2.70;1.00;;;;;;;;;;8269272;28;20025;-76
2021/12/31 10:10:15;;;;;;;1.95;1.00;;;;;;;;;;8271051;28;20553;-76
2021/12/31 10:14:15;;;;;;;1.63;1.00;;;;;;;;;;8270106;28;20060;-76
2021/12/31 10:18:15;;;;;;;2.30;1.25;;;;;;;;;;8261473;28;20698;-76
2021/12/31 10:22:16;;;;;;;2.20;1.10;;;;;;;;;;8267302;28;20025;-76
2021/12/31 10:26:20;;;;;;;2.83;1.38;;;;;;;;;;8271346;28;20301;-76
2021/12/31 10:30:24;;;;;;;1.57;1.10;;;;;;;;;;8269066;28;20032;-76
2021/12/31 10:34:37;;;;;;;3.88;1.23;;;;;;;;;;8279439;28;20067;-76
2021/12/31 10:38:39;;;;;;;1.95;1.17;;;;;;;;;;8269166;28;20021;-76
2021/12/31 10:42:40;;;;;;;2.85;1.10;;;;;;;;;;8268290;28;20110;-76
2021/12/31 10:46:41;;;;;;;2.20;1.05;;;;;;;;;;8268044;28;20042;-76
2021/12/31 10:50:49;;;;;;;4.10;1.58;;;;;;;;;;8268540;28;20036;-75
2021/12/31 10:55:00;;;;;;;3.00;1.40;;;;;;;;;;8269400;28;20032;-75
2021/12/31 10:59:03;;;;;;;2.38;1.23;;;;;;;;;;8269069;28;20040;-75
2021/12/31 11:03:04;;;;;;;2.42;1.38;;;;;;;;;;8273022;28;20739;-75
2021/12/31 11:07:07;;;;;;;4.35;1.40;;;;;;;;;;8289094;28;20022;-74
2021/12/31 11:11:08;;;;;;;1.48;1.10;;;;;;;;;;8272024;28;20131;-75
2021/12/31 11:15:08;;;;;;;3.05;1.35;;;;;;;;;;8272438;28;20026;-75
2021/12/31 11:19:11;;;;;;;2.03;1.20;;;;;;;;;;8275601;28;20025;-75
2021/12/31 11:23:12;;;;;;;1.20;1.00;;;;;;;;;;8273287;28;20461;-75
2021/12/31 11:27:27;;;;;;;3.65;1.10;;;;;;;;;;8275289;28;20030;-75
2021/12/31 11:31:29;;;;;;;2.00;0.93;;;;;;;;;;8275085;28;20403;-75
2021/12/31 11:35:29;;;;;;;2.17;1.30;;;;;;;;;;8274398;28;20058;-75
2021/12/31 11:39:30;;;;;;;1.03;1.00;;;;;;;;;;8277053;28;20190;-75
2021/12/31 11:43:31;;;;;;;2.58;1.10;;;;;;;;;;8275623;28;20273;-74
2021/12/31 11:47:33;;;;;;;2.03;1.42;;;;;;;;;;8272551;28;20037;-75
2021/12/31 11:51:34;;;;;;;1.33;1.23;;;;;;;;;;8272625;28;20034;-75
2021/12/31 11:55:44;;;;;;;3.20;1.10;;;;;;;;;;8271764;28;20030;-74
2021/12/31 11:59:46;;;;;;;3.63;1.40;;;;;;;;;;8273601;28;20049;-75
2021/12/31 12:03:46;;;;;;;2.78;1.10;;;;;;;;;;8282088;28;20156;-74
2021/12/31 12:07:47;;;;;;;2.30;1.10;;;;;;;;;;8281404;28;20052;-75
2021/12/31 12:12:03;;;;;;;1.88;1.20;;;;;;;;;;8273681;28;20116;-75
2021/12/31 12:16:05;;;;;;;2.78;1.27;;;;;;;;;;8272489;28;20038;-75
2021/12/31 12:20:06;;;;;;;1.33;1.10;;;;;;;;;;8272921;28;20112;-75
2021/12/31 12:24:07;;;;;;;1.40;1.25;;;;;;;;;;8272630;28;20033;-75
2021/12/31 12:28:09;;;;;;;2.10;1.20;;;;;;;;;;8266885;28;20036;-75
2021/12/31 12:32:11;;;;;;;3.38;1.20;;;;;;;;;;8264479;28;20052;-75
2021/12/31 12:36:15;;;;;;;1.50;1.15;;;;;;;;;;8273051;28;20758;-75
2021/12/31 12:40:15;;;;;;;2.50;1.50;;;;;;;;;;8272782;28;20065;-75
2021/12/31 12:44:16;;;;;;;2.28;1.50;;;;;;;;;;8268191;28;20033;-74
2021/12/31 12:48:27;;;;;;;3.15;1.60;;;;;;;;;;8270092;28;20716;-74
2021/12/31 12:52:28;;;;;;;2.70;1.58;;;;;;;;;;8271178;28;20026;-74
2021/12/31 12:56:28;;;;;;;1.52;1.27;;;;;;;;;;8273468;28;20704;-74
2021/12/31 13:00:38;;;;;;;2.50;1.53;;;;;;;;;;8271047;28;20061;-75
2021/12/31 13:04:38;;;;;;;2.28;1.60;;;;;;;;;;8269739;28;20303;-75
2021/12/31 13:08:38;;;;;;;1.70;1.60;;;;;;;;;;8269777;28;20024;-75
2021/12/31 13:12:38;;;;;;;3.85;2.50;;;;;;;;;;8270797;28;20020;-75
2021/12/31 13:16:40;;;;;;;4.15;1.75;;;;;;;;;;8270866;28;20041;-75
2021/12/31 13:20:40;;;;;;;1.70;1.60;;;;;;;;;;8267371;28;20026;-75
2021/12/31 13:24:40;;;;;;;4.03;1.70;;;;;;;;;;8268797;28;20219;-75
2021/12/31 13:28:40;;;;;;;3.53;1.85;;;;;;;;;;8273117;28;20026;-74
2021/12/31 13:32:42;;;;;;;2.42;2.00;;;;;;;;;;8268386;28;20503;-76
2021/12/31 13:36:50;;;;;;;2.65;2.13;;;;;;;;;;8272732;28;20033;-76
2021/12/31 13:40:50;;;;;;;2.30;2.00;;;;;;;;;;8270314;28;20036;-76
2021/12/31 13:44:51;;;;;;;4.50;2.03;;;;;;;;;;8271074;28;20988;-76
2021/12/31 13:49:00;;;;;;;1.95;1.85;;;;;;;;;;8269969;28;20041;-75
2021/12/31 13:53:00;;;;;;;2.38;2.17;;;;;;;;;;8269736;28;20104;-74
2021/12/31 13:57:01;;;;;;;4.67;2.07;;;;;;;;;;8279587;28;20021;-76
2021/12/31 14:01:12;;;;;;;3.35;2.38;;;;;;;;;;8270476;28;20358;-76
2021/12/31 14:05:13;;;;;;;3.10;2.25;;;;;;;;;;8269909;28;20128;-75
2021/12/31 14:09:14;;;;;;;2.60;2.38;;;;;;;;;;8269577;28;20734;-76
2021/12/31 14:13:14;;;;;;;3.13;1.85;;;;;;;;;;8269497;28;20025;-75
2021/12/31 14:17:15;;;;;;;2.05;1.85;;;;;;;;;;8267872;28;20049;-76
2021/12/31 14:21:15;;;;;;;3.13;2.00;;;;;;;;;;8268467;28;20059;-75
2021/12/31 14:25:15;;;;;;;2.40;1.80;;;;;;;;;;8270347;28;20076;-76
2021/12/31 14:29:18;;;;;;;2.45;2.25;;;;;;;;;;8268428;28;20104;-77
2021/12/31 14:33:19;;;;;;;6.32;2.45;;;;;;;;;;8267768;28;20096;-75
2021/12/31 14:37:19;;;;;;;2.80;2.60;;;;;;;;;;8268299;28;20029;-76
2021/12/31 14:41:22;;;;;;;4.93;3.42;;;;;;;;;;8269648;28;20030;-75
2021/12/31 14:45:22;;;;;;;6.53;4.25;;;;;;;;;;8268122;28;20050;-76
2021/12/31 14:49:23;;;;;;;4.18;3.65;;;;;;;;;;8270228;28;20570;-76
2021/12/31 14:53:24;;;;;;;5.60;3.92;;;;;;;;;;8269814;28;20026;-75
2021/12/31 14:57:24;;;;;;;6.95;4.75;;;;;;;;;;8269087;28;20063;-75
2021/12/31 15:01:25;;;;;;;7.57;4.88;;;;;;;;;;8270110;28;20407;-76
2021/12/31 15:05:25;;;;;;;8.82;5.60;;;;;;;;;;8269467;28;20025;-76
2021/12/31 15:09:25;;;;;;;7.38;5.75;;;;;;;;;;8269185;28;20748;-75
2021/12/31 15:13:25;;;;;;;8.52;5.80;;;;;;;;;;8266908;28;20576;-75
2021/12/31 15:17:29;;;;;;;9.38;6.22;;;;;;;;;;8269019;28;20493;-75
2021/12/31 15:21:29;;;;;;;12.10;6.87;;;;;;;;;;8269419;28;20025;-75
2021/12/31 15:25:29;;;;;;;11.50;6.72;;;;;;;;;;8268313;28;20030;-75
2021/12/31 15:29:30;;;;;;;10.35;7.22;;;;;;;;;;8266682;28;20021;-75
2021/12/31 15:33:30;;;;;;;12.40;7.18;;;;;;;;;;8266540;28;20041;-75
2021/12/31 15:37:31;;;;;;;14.63;8.40;;;;;;;;;;8267513;28;20044;-76
2021/12/31 15:41:31;;;;;;;11.57;7.35;;;;;;;;;;8269923;28;20130;-76
2021/12/31 15:45:31;;;;;;;14.15;8.88;;;;;;;;;;8267620;28;20115;-76
2021/12/31 15:49:32;;;;;;;13.40;8.05;;;;;;;;;;8273876;28;20471;-75
2021/12/31 15:53:32;;;;;;;16.17;9.20;;;;;;;;;;8276592;28;20040;-74
2021/12/31 15:57:32;;;;;;;14.57;8.83;;;;;;;;;;8273620;28;20303;-75
2021/12/31 16:01:33;;;;;;;12.43;8.75;;;;;;;;;;8272186;28;20060;-76
2021/12/31 16:05:33;;;;;;;14.10;8.35;;;;;;;;;;8269277;28;20030;-76
2021/12/31 16:09:33;;;;;;;13.97;9.03;;;;;;;;;;8272216;28;20472;-75
2021/12/31 16:13:33;;;;;;;14.27;8.77;;;;;;;;;;8273459;28;20835;-76
2021/12/31 16:17:33;;;;;;;12.02;8.82;;;;;;;;;;8287628;28;20042;-75
2021/12/31 16:21:34;;;;;;;12.65;9.43;;;;;;;;;;8272751;28;20101;-74
2021/12/31 16:25:34;;;;;;;15.23;8.90;;;;;;;;;;8270777;28;20095;-75
2021/12/31 16:29:51;;;;;;;12.32;9.18;;;;;;;;;;8271687;28;20478;-75
2021/12/31 16:33:51;;;;;;;14.65;9.45;;;;;;;;;;8271010;28;20046;-75
2021/12/31 16:37:51;;;;;;;12.32;8.60;;;;;;;;;;8272157;28;20107;-74
2021/12/31 16:41:51;;;;;;;12.07;8.23;;;;;;;;;;8270558;28;20064;-75
2021/12/31 16:45:53;;;;;;;11.57;7.82;;;;;;;;;;8272814;28;20277;-75
2021/12/31 16:49:54;;;;;;;10.25;6.80;;;;;;;;;;8273100;28;20050;-74
2021/12/31 16:53:55;;;;;;;12.75;7.10;;;;;;;;;;8273223;28;20060;-75
2021/12/31 16:57:55;;;;;;;8.77;7.20;;;;;;;;;;8274056;28;20113;-80
2021/12/31 17:01:55;;;;;;;10.88;6.65;;;;;;;;;;8269286;28;20474;-80
2021/12/31 17:05:55;;;;;;;9.85;7.20;;;;;;;;;;8268921;28;20029;-81
2021/12/31 17:09:56;;;;;;;10.43;7.40;;;;;;;;;;8264467;28;20029;-81
2021/12/31 17:13:56;;;;;;;9.40;7.20;;;;;;;;;;8271983;28;20886;-81
2021/12/31 17:17:56;;;;;;;13.95;8.50;;;;;;;;;;8270410;28;20693;-81
2021/12/31 17:21:57;;;;;;;8.40;7.18;;;;;;;;;;8272956;28;20022;-81
2021/12/31 17:25:57;;;;;;;9.52;6.95;;;;;;;;;;8270070;28;20048;-81
2021/12/31 17:29:57;;;;;;;8.07;6.70;;;;;;;;;;8268203;28;20056;-81
2021/12/31 17:33:57;;;;;;;10.73;7.05;;;;;;;;;;8264982;28;20037;-81
2021/12/31 17:37:58;;;;;;;10.48;7.78;;;;;;;;;;8272654;28;20025;-80
2021/12/31 17:41:58;;;;;;;8.07;6.03;;;;;;;;;;8272551;28;20723;-80
2021/12/31 17:46:00;;;;;;;9.88;6.30;;;;;;;;;;8270858;28;20042;-81
2021/12/31 17:50:00;;;;;;;6.88;6.18;;;;;;;;;;8264875;28;20093;-81
2021/12/31 17:54:00;;;;;;;12.15;6.95;;;;;;;;;;8272177;28;20025;-81
2021/12/31 17:58:00;;;;;;;8.23;6.22;;;;;;;;;;8270050;28;20068;-81
2021/12/31 18:02:01;;;;;;;8.73;6.22;;;;;;;;;;8269115;28;20740;-81
2021/12/31 18:06:02;;;;;;;10.48;6.40;;;;;;;;;;8272546;28;20268;-81
2021/12/31 18:10:03;;;;;;;8.57;6.15;;;;;;;;;;8269368;28;20126;-82
2021/12/31 18:14:03;;;;;;;6.72;5.70;;;;;;;;;;8271799;28;20176;-81
2021/12/31 18:18:06;;;;;;;7.32;6.53;;;;;;;;;;8268610;28;20045;-81
2021/12/31 18:22:06;;;;;;;10.02;5.93;;;;;;;;;;8271125;28;20044;-81
2021/12/31 18:26:06;;;;;;;8.40;5.60;;;;;;;;;;8270529;28;20057;-81
2021/12/31 18:30:07;;;;;;;10.18;5.85;;;;;;;;;;8270778;28;20108;-81
2021/12/31 18:34:07;;;;;;;9.18;5.40;;;;;;;;;;8270333;28;20073;-81
2021/12/31 18:38:08;;;;;;;9.63;6.10;;;;;;;;;;8267934;28;20017;-81
2021/12/31 18:42:08;;;;;;;9.27;5.70;;;;;;;;;;8269925;28;20634;-82
2021/12/31 18:46:10;;;;;;;9.40;6.18;;;;;;;;;;8271654;28;20063;-81
2021/12/31 18:50:16;;;;;;;6.72;5.38;;;;;;;;;;8270140;28;20029;-81
2021/12/31 18:54:16;;;;;;;8.27;6.03;;;;;;;;;;8267602;28;20021;-81
2021/12/31 18:58:20;;;;;;;7.70;6.03;;;;;;;;;;8269376;28;20140;-81
2021/12/31 19:02:20;;;;;;;10.63;5.97;;;;;;;;;;8270634;28;20060;-81
2021/12/31 19:06:21;;;;;;;7.53;5.80;;;;;;;;;;8271312;28;20029;-81
2021/12/31 19:10:22;;;;;;;10.73;6.45;;;;;;;;;;8269498;28;20464;-81
2021/12/31 19:14:22;;;;;;;10.30;6.38;;;;;;;;;;8270995;28;20022;-81
2021/12/31 19:18:23;;;;;;;11.67;6.57;;;;;;;;;;8268940;28;20040;-81
2021/12/31 19:22:24;;;;;;;8.82;6.38;;;;;;;;;;8265538;28;20264;-81
2021/12/31 19:26:24;;;;;;;9.18;6.45;;;;;;;;;;8277345;28;20017;-81
2021/12/31 19:30:24;;;;;;;6.88;5.95;;;;;;;;;;8269024;28;20517;-81
2021/12/31 19:34:24;;;;;;;7.25;5.65;;;;;;;;;;8276189;28;20034;-81
2021/12/31 19:38:24;;;;;;;9.02;6.30;;;;;;;;;;8274498;28;20052;-81
2021/12/31 19:42:25;;;;;;;8.13;5.30;;;;;;;;;;8274107;28;20026;-81
2021/12/31 19:46:25;;;;;;;7.33;5.80;;;;;;;;;;8274544;28;20483;-81
2021/12/31 19:50:25;;;;;;;8.65;6.05;;;;;;;;;;8276604;28;20354;-81
2021/12/31 19:54:26;;;;;;;10.25;6.57;;;;;;;;;;8275795;28;20026;-81
2021/12/31 19:58:26;;;;;;;9.10;6.60;;;;;;;;;;8275132;28;20025;-82
2021/12/31 20:02:26;;;;;;;9.55;6.40;;;;;;;;;;8273545;28;20281;-81
2021/12/31 20:06:26;;;;;;;9.75;6.35;;;;;;;;;;8276722;28;20037;-82
2021/12/31 20:10:27;;;;;;;8.05;6.15;;;;;;;;;;8275037;28;20034;-81
2021/12/31 20:14:27;;;;;;;7.00;5.70;;;;;;;;;;8274862;28;20165;-81
2021/12/31 20:18:27;;;;;;;7.47;5.95;;;;;;;;;;8267583;28;20945;-82
2021/12/31 20:22:27;;;;;;;7.13;5.47;;;;;;;;;;8272804;28;20014;-82
2021/12/31 20:26:27;;;;;;;11.52;5.47;;;;;;;;;;8275322;28;20099;-82
2021/12/31 20:30:28;;;;;;;9.38;5.88;;;;;;;;;;8272737;28;20045;-82
2021/12/31 20:34:28;;;;;;;6.72;5.13;;;;;;;;;;8271406;28;20026;-82
2021/12/31 20:38:28;;;;;;;7.35;5.68;;;;;;;;;;8276606;28;20826;-82
2021/12/31 20:42:28;;;;;;;11.75;5.90;;;;;;;;;;8266363;28;20026;-82
2021/12/31 20:46:28;;;;;;;8.77;5.57;;;;;;;;;;8272935;28;20037;-82
2021/12/31 20:50:30;;;;;;;10.13;6.53;;;;;;;;;;8272421;28;20039;-82
2021/12/31 20:54:31;;;;;;;11.63;6.55;;;;;;;;;;8272307;28;20026;-82
2021/12/31 20:58:31;;;;;;;9.18;6.47;;;;;;;;;;8271674;28;20506;-82
2021/12/31 21:02:33;;;;;;;8.07;6.25;;;;;;;;;;8274030;28;20034;-82
2021/12/31 21:06:33;;;;;;;9.40;6.30;;;;;;;;;;8274799;28;20520;-82
2021/12/31 21:10:34;;;;;;;7.72;5.65;;;;;;;;;;8273848;28;20113;-82
2021/12/31 21:14:34;;;;;;;9.70;7.10;;;;;;;;;;8283167;28;20535;-82
2021/12/31 21:18:34;;;;;;;10.33;7.10;;;;;;;;;;8270852;28;20034;-82
2021/12/31 21:22:35;;;;;;;6.70;5.95;;;;;;;;;;8274042;28;20389;-82
2021/12/31 21:26:35;;;;;;;7.90;5.63;;;;;;;;;;8271268;28;20039;-82
2021/12/31 21:30:36;;;;;;;6.17;5.13;;;;;;;;;;8270890;28;20128;-81
2021/12/31 21:34:37;;;;;;;6.53;4.93;;;;;;;;;;8273351;28;20404;-82
2021/12/31 21:38:37;;;;;;;6.43;4.43;;;;;;;;;;8270279;28;20030;-82
2021/12/31 21:42:38;;;;;;;7.53;4.93;;;;;;;;;;8270253;28;20432;-82
2021/12/31 21:46:38;;;;;;;7.72;5.00;;;;;;;;;;8271111;28;20041;-82
2021/12/31 21:50:38;;;;;;;6.23;4.17;;;;;;;;;;8273390;28;20025;-81
2021/12/31 21:54:38;;;;;;;5.32;4.18;;;;;;;;;;8274077;28;20264;-81
2021/12/31 21:58:39;;;;;;;5.78;3.92;;;;;;;;;;8271194;28;20052;-82
2021/12/31 22:02:39;;;;;;;5.35;4.13;;;;;;;;;;8274469;28;20041;-82
2021/12/31 22:06:40;;;;;;;3.83;3.50;;;;;;;;;;8273039;28;20734;-82
2021/12/31 22:10:40;;;;;;;6.20;4.15;;;;;;;;;;8273204;28;20021;-82
2021/12/31 22:14:40;;;;;;;7.28;3.90;;;;;;;;;;8271129;28;20029;-82
2021/12/31 22:18:40;;;;;;;5.22;3.85;;;;;;;;;;8271702;28;20101;-82
2021/12/31 22:22:40;;;;;;;4.30;3.70;;;;;;;;;;8264508;28;20034;-82
2021/12/31 22:26:42;;;;;;;6.63;4.20;;;;;;;;;;8274187;28;20040;-82
2021/12/31 22:30:42;;;;;;;5.70;4.05;;;;;;;;;;8271544;28;20053;-82
2021/12/31 22:34:43;;;;;;;4.45;4.05;;;;;;;;;;8272609;28;20121;-82
2021/12/31 22:38:43;;;;;;;6.40;4.00;;;;;;;;;;8273313;28;20032;-82
2021/12/31 22:42:43;;;;;;;6.07;3.70;;;;;;;;;;8270619;28;20375;-82
2021/12/31 22:46:43;;;;;;;3.97;3.57;;;;;;;;;;8263973;28;20037;-82
2021/12/31 22:50:43;;;;;;;5.88;4.10;;;;;;;;;;8271267;28;20041;-82
2021/12/31 22:54:44;;;;;;;4.63;3.80;;;;;;;;;;8271678;28;20029;-81
2021/12/31 22:58:45;;;;;;;5.57;3.90;;;;;;;;;;8269779;28;20028;-83
2021/12/31 23:02:45;;;;;;;18.73;12.40;;;;;;;;;;8268334;28;20364;-82
2021/12/31 23:06:45;;;;;;;256.20;135.48;;;;;;;;;;8270547;28;20033;-82
2021/12/31 23:10:45;;;;;;;31.95;20.58;;;;;;;;;;8272254;28;20033;-82
2021/12/31 23:14:45;;;;;;;34.33;18.43;;;;;;;;;;8272610;28;20029;-82
2021/12/31 23:18:46;;;;;;;9.38;7.45;;;;;;;;;;8263043;28;20335;-82
2021/12/31 23:22:46;;;;;;;57.45;29.10;;;;;;;;;;8271375;28;20029;-82
2021/12/31 23:26:48;;;;;;;25.67;17.83;;;;;;;;;;8271026;28;20075;-82
2021/12/31 23:30:48;;;;;;;11.45;9.88;;;;;;;;;;8269630;28;20046;-82
2021/12/31 23:34:48;;;;;;;5.75;4.90;;;;;;;;;;8265226;28;20124;-83
2021/12/31 23:38:51;;;;;;;5.05;4.50;;;;;;;;;;8273170;28;20076;-82
2021/12/31 23:42:51;;;;;;;5.25;4.50;;;;;;;;;;8270592;28;20017;-83
2021/12/31 23:46:54;;;;;;;6.32;5.50;;;;;;;;;;8271704;28;20157;-82
2021/12/31 23:50:54;;;;;;;5.65;5.00;;;;;;;;;;8268630;28;20062;-82
2021/12/31 23:54:54;;;;;;;7.03;4.70;;;;;;;;;;8270623;28;20022;-82
2021/12/31 23:58:55;;;;;;;5.90;4.68;;;;;;;;;;8272508;28;20898;-82
